Time;durP1;ratioP1;P1;durP2;ratioP2;P2;SDS_P1;SDS_P2;PMS_P1;PMS_P2;Temp;Humidity;BMP_temperature;BMP_pressure;BME280_temperature;BME280_humidity;BME280_pressure;Samples;Min_cycle;Max_cycle;Signal;HPM_P1;HPM_P2
2021/06/10 00:01:23;;;;;;;6.23;5.63;;;;;;;;;;5095482;28;20230;-85
2021/06/10 00:03:48;;;;;;;6.27;5.50;;;;;;;;;;5094838;28;20224;-85
2021/06/10 00:06:13;;;;;;;5.93;5.30;;;;;;;;;;5095209;28;20194;-85
2021/06/10 00:08:39;;;;;;;6.20;5.60;;;;;;;;;;5095510;28;20185;-85
2021/06/10 00:11:04;;;;;;;7.67;5.73;;;;;;;;;;5093845;28;20370;-85
2021/06/10 00:13:30;;;;;;;5.80;5.40;;;;;;;;;;5095321;28;20198;-85
2021/06/10 00:15:56;;;;;;;7.53;5.50;;;;;;;;;;5094761;28;20697;-85
2021/06/10 00:18:21;;;;;;;9.60;6.40;;;;;;;;;;5095022;28;20202;-85
2021/06/10 00:20:46;;;;;;;6.30;5.57;;;;;;;;;;5094690;28;20166;-85
2021/06/10 00:23:11;;;;;;;5.87;5.37;;;;;;;;;;5094746;28;20170;-85
2021/06/10 00:25:37;;;;;;;6.07;5.57;;;;;;;;;;5095057;28;20616;-85
2021/06/10 00:28:02;;;;;;;6.90;6.30;;;;;;;;;;5095058;28;20162;-85
2021/06/10 00:30:28;;;;;;;6.47;5.97;;;;;;;;;;5094580;28;20211;-85
2021/06/10 00:32:54;;;;;;;6.57;6.07;;;;;;;;;;5094463;28;20223;-85
2021/06/10 00:35:20;;;;;;;6.27;5.67;;;;;;;;;;5095186;28;20303;-85
2021/06/10 00:37:46;;;;;;;6.50;5.60;;;;;;;;;;5094623;28;20167;-85
2021/06/10 00:40:12;;;;;;;7.80;6.37;;;;;;;;;;5093760;28;20693;-85
2021/06/10 00:42:37;;;;;;;6.57;5.90;;;;;;;;;;5094380;28;20202;-85
2021/06/10 00:45:07;;;;;;;6.47;5.87;;;;;;;;;;5094507;28;20173;-85
2021/06/10 00:47:33;;;;;;;6.60;6.00;;;;;;;;;;5095046;28;20174;-85
2021/06/10 00:49:58;;;;;;;6.20;5.60;;;;;;;;;;5094134;28;20170;-85
2021/06/10 00:52:23;;;;;;;6.63;5.77;;;;;;;;;;5094989;28;20177;-85
2021/06/10 00:54:49;;;;;;;6.13;5.60;;;;;;;;;;5076197;28;20749;-85
2021/06/10 00:57:14;;;;;;;6.60;6.00;;;;;;;;;;5094833;28;20210;-85
2021/06/10 00:59:39;;;;;;;6.03;5.53;;;;;;;;;;5094320;28;20231;-84
2021/06/10 01:02:05;;;;;;;6.40;5.90;;;;;;;;;;5094528;28;20227;-84
2021/06/10 01:04:30;;;;;;;6.53;5.60;;;;;;;;;;5094117;28;20230;-84
2021/06/10 01:07:04;;;;;;;6.57;6.07;;;;;;;;;;5094761;28;20162;-84
2021/06/10 01:09:33;;;;;;;6.90;6.20;;;;;;;;;;5092633;28;20423;-84
2021/06/10 01:12:21;;;;;;;6.63;6.03;;;;;;;;;;5094635;28;20198;-84
2021/06/10 01:14:55;;;;;;;6.80;6.20;;;;;;;;;;5085375;28;20183;-85
2021/06/10 01:17:21;;;;;;;10.07;6.83;;;;;;;;;;5094085;28;20230;-85
2021/06/10 01:19:56;;;;;;;9.33;6.10;;;;;;;;;;5094074;28;20190;-84
2021/06/10 01:22:30;;;;;;;7.20;6.33;;;;;;;;;;5093948;28;20212;-84
2021/06/10 01:25:06;;;;;;;7.83;6.33;;;;;;;;;;5094010;28;20623;-84
2021/06/10 01:27:33;;;;;;;7.00;6.40;;;;;;;;;;5094032;28;20237;-84
2021/06/10 01:30:22;;;;;;;6.73;6.10;;;;;;;;;;5093671;28;20640;-84
2021/06/10 01:32:50;;;;;;;6.80;6.10;;;;;;;;;;5085713;28;20193;-84
2021/06/10 01:35:16;;;;;;;7.40;6.70;;;;;;;;;;5093591;28;20545;-84
2021/06/10 01:37:42;;;;;;;6.90;6.30;;;;;;;;;;5093554;28;20163;-84
2021/06/10 01:40:08;;;;;;;7.37;6.67;;;;;;;;;;5093770;28;20167;-84
2021/06/10 01:42:36;;;;;;;7.50;6.77;;;;;;;;;;5093954;28;20162;-84
2021/06/10 01:45:02;;;;;;;7.70;6.90;;;;;;;;;;5093775;28;20288;-84
2021/06/10 01:47:27;;;;;;;7.77;6.87;;;;;;;;;;5093788;28;20198;-85
2021/06/10 01:49:53;;;;;;;7.47;6.70;;;;;;;;;;5093465;28;20261;-84
2021/06/10 01:52:19;;;;;;;7.00;6.40;;;;;;;;;;5095888;28;20171;-84
2021/06/10 01:54:45;;;;;;;7.70;6.57;;;;;;;;;;5097708;28;20243;-84
2021/06/10 01:57:11;;;;;;;8.43;6.63;;;;;;;;;;5097509;28;20170;-84
2021/06/10 01:59:36;;;;;;;6.90;6.30;;;;;;;;;;5097721;28;20194;-84
2021/06/10 02:02:02;;;;;;;7.63;5.97;;;;;;;;;;5097386;28;20222;-84
2021/06/10 02:04:28;;;;;;;7.37;6.67;;;;;;;;;;5097487;28;20202;-84
2021/06/10 02:06:54;;;;;;;8.47;6.83;;;;;;;;;;5097709;28;20171;-84
2021/06/10 02:09:21;;;;;;;7.13;6.20;;;;;;;;;;5097203;28;20213;-84
2021/06/10 02:11:48;;;;;;;7.13;6.23;;;;;;;;;;5097717;28;20526;-84
2021/06/10 02:14:13;;;;;;;6.47;5.97;;;;;;;;;;5097158;28;20656;-84
2021/06/10 02:16:40;;;;;;;7.07;6.37;;;;;;;;;;5097302;28;20166;-84
2021/06/10 02:19:05;;;;;;;7.23;6.33;;;;;;;;;;5097289;28;20566;-85
2021/06/10 02:21:31;;;;;;;7.27;6.37;;;;;;;;;;5097328;28;20257;-84
2021/06/10 02:23:57;;;;;;;10.00;6.97;;;;;;;;;;5097377;28;20202;-84
2021/06/10 02:26:22;;;;;;;7.50;6.70;;;;;;;;;;5097229;28;20228;-84
2021/06/10 02:28:47;;;;;;;7.50;6.80;;;;;;;;;;5096898;28;20523;-84
2021/06/10 02:31:13;;;;;;;7.23;6.53;;;;;;;;;;5097328;28;20174;-84
2021/06/10 02:33:39;;;;;;;7.83;6.33;;;;;;;;;;5096736;28;20178;-84
2021/06/10 02:36:06;;;;;;;8.07;6.50;;;;;;;;;;5097297;28;20553;-84
2021/06/10 02:38:33;;;;;;;7.00;6.40;;;;;;;;;;5097517;28;20171;-85
2021/06/10 02:40:59;;;;;;;6.60;5.97;;;;;;;;;;5096953;28;20185;-85
2021/06/10 02:43:24;;;;;;;6.90;6.20;;;;;;;;;;5097041;28;20206;-85
2021/06/10 02:45:51;;;;;;;7.27;6.57;;;;;;;;;;5097079;28;20640;-85
2021/06/10 02:48:17;;;;;;;7.10;6.47;;;;;;;;;;5096510;28;20532;-85
2021/06/10 02:50:42;;;;;;;7.03;6.33;;;;;;;;;;5096430;28;20181;-85
2021/06/10 02:53:14;;;;;;;6.33;5.80;;;;;;;;;;5096334;28;20185;-85
2021/06/10 02:55:40;;;;;;;7.80;6.00;;;;;;;;;;5096569;28;20194;-85
2021/06/10 02:58:05;;;;;;;6.30;5.80;;;;;;;;;;5096853;28;20224;-85
2021/06/10 03:00:32;;;;;;;7.10;6.40;;;;;;;;;;5096052;28;20170;-85
2021/06/10 03:02:58;;;;;;;7.10;6.10;;;;;;;;;;5095299;28;20716;-85
2021/06/10 03:05:25;;;;;;;7.10;6.40;;;;;;;;;;5096422;28;20198;-85
2021/06/10 03:07:50;;;;;;;6.73;6.07;;;;;;;;;;5096366;28;20171;-84
2021/06/10 03:10:16;;;;;;;6.80;6.07;;;;;;;;;;5096045;28;20185;-84
2021/06/10 03:12:42;;;;;;;6.60;6.00;;;;;;;;;;5096181;28;20171;-84
2021/06/10 03:15:09;;;;;;;6.25;5.65;;;;;;;;;;5095052;28;20389;-84
2021/06/10 03:17:35;;;;;;;6.40;5.90;;;;;;;;;;5096205;28;20220;-84
2021/06/10 03:20:01;;;;;;;6.53;5.87;;;;;;;;;;5096240;28;20522;-84
2021/06/10 03:22:26;;;;;;;6.53;5.97;;;;;;;;;;5096092;28;20205;-84
2021/06/10 03:24:52;;;;;;;6.40;5.80;;;;;;;;;;5096114;28;20194;-85
2021/06/10 03:27:18;;;;;;;6.50;5.90;;;;;;;;;;5096308;28;20609;-85
2021/06/10 03:29:43;;;;;;;6.60;6.00;;;;;;;;;;5095972;28;20637;-85
2021/06/10 03:32:09;;;;;;;6.70;6.10;;;;;;;;;;5095949;28;20276;-84
2021/06/10 03:34:35;;;;;;;6.90;6.23;;;;;;;;;;5077704;28;20180;-84
2021/06/10 03:37:01;;;;;;;7.60;6.27;;;;;;;;;;5095749;28;20193;-84
2021/06/10 03:39:26;;;;;;;6.47;5.97;;;;;;;;;;5095492;28;20174;-84
2021/06/10 03:41:53;;;;;;;6.87;6.27;;;;;;;;;;5096225;28;20159;-85
2021/06/10 03:44:18;;;;;;;6.30;5.80;;;;;;;;;;5095273;28;20202;-85
2021/06/10 03:46:44;;;;;;;6.80;6.20;;;;;;;;;;5095623;28;20274;-85
2021/06/10 03:49:10;;;;;;;8.03;7.40;;;;;;;;;;5095571;28;20219;-85
2021/06/10 03:51:35;;;;;;;7.87;7.17;;;;;;;;;;5095469;28;20193;-84
2021/06/10 03:54:01;;;;;;;7.63;7.00;;;;;;;;;;5095500;28;20616;-84
2021/06/10 03:56:26;;;;;;;8.13;7.47;;;;;;;;;;5095244;28;20663;-84
2021/06/10 03:58:51;;;;;;;6.60;6.00;;;;;;;;;;5095072;28;20174;-85
2021/06/10 04:01:17;;;;;;;7.03;6.33;;;;;;;;;;5095523;28;20246;-85
2021/06/10 04:03:42;;;;;;;7.80;6.80;;;;;;;;;;5094863;28;20194;-86
2021/06/10 04:06:09;;;;;;;8.90;8.07;;;;;;;;;;5094951;28;20163;-86
2021/06/10 04:08:35;;;;;;;8.70;7.90;;;;;;;;;;5095518;28;20245;-86
2021/06/10 04:11:00;;;;;;;8.63;7.47;;;;;;;;;;5094853;28;20201;-86
2021/06/10 04:13:25;;;;;;;9.00;8.10;;;;;;;;;;5094797;28;20594;-86
2021/06/10 04:15:51;;;;;;;8.80;8.00;;;;;;;;;;5095583;28;20167;-85
2021/06/10 04:18:19;;;;;;;8.18;7.45;;;;;;;;;;5094996;28;20192;-85
2021/06/10 04:20:49;;;;;;;9.23;8.32;;;;;;;;;;5095290;28;20167;-85
2021/06/10 04:23:14;;;;;;;8.70;7.85;;;;;;;;;;5095168;28;20198;-85
2021/06/10 04:25:40;;;;;;;8.60;7.70;;;;;;;;;;5094599;28;20219;-86
2021/06/10 04:28:05;;;;;;;7.22;6.47;;;;;;;;;;5094597;28;20178;-87
2021/06/10 04:30:30;;;;;;;5.22;4.82;;;;;;;;;;5094869;28;20170;-87
2021/06/10 04:32:56;;;;;;;5.32;4.72;;;;;;;;;;5095046;28;20304;-87
2021/06/10 04:35:21;;;;;;;6.18;5.00;;;;;;;;;;5095095;28;20170;-87
2021/06/10 04:37:46;;;;;;;5.60;5.10;;;;;;;;;;5094751;28;20175;-86
2021/06/10 04:40:12;;;;;;;5.25;4.85;;;;;;;;;;5094714;28;20617;-87
2021/06/10 04:42:37;;;;;;;6.07;5.22;;;;;;;;;;5094552;28;20232;-86
2021/06/10 04:45:03;;;;;;;7.38;5.85;;;;;;;;;;5094302;28;20554;-86
2021/06/10 04:47:28;;;;;;;8.10;6.07;;;;;;;;;;5094274;28;20637;-86
2021/06/10 04:49:53;;;;;;;5.88;5.38;;;;;;;;;;5094152;28;20166;-86
2021/06/10 04:52:19;;;;;;;6.07;5.60;;;;;;;;;;5094142;28;20189;-86
2021/06/10 04:54:44;;;;;;;5.80;5.40;;;;;;;;;;5094157;28;20208;-86
2021/06/10 04:57:09;;;;;;;5.95;5.40;;;;;;;;;;5094108;28;20182;-86
2021/06/10 04:59:35;;;;;;;6.10;5.50;;;;;;;;;;5094357;28;20272;-86
2021/06/10 05:02:04;;;;;;;6.20;5.67;;;;;;;;;;5094741;28;20214;-86
2021/06/10 05:04:30;;;;;;;6.03;5.53;;;;;;;;;;5094873;28;20671;-85
2021/06/10 05:06:55;;;;;;;5.97;5.47;;;;;;;;;;5093985;28;20167;-85
2021/06/10 05:09:21;;;;;;;6.10;5.60;;;;;;;;;;5094517;28;20170;-86
2021/06/10 05:11:46;;;;;;;5.97;5.43;;;;;;;;;;5094183;28;20177;-85
2021/06/10 05:14:11;;;;;;;7.40;6.80;;;;;;;;;;5093754;28;20193;-85
2021/06/10 05:16:37;;;;;;;6.80;5.87;;;;;;;;;;5093792;28;20249;-85
2021/06/10 05:19:02;;;;;;;7.47;5.63;;;;;;;;;;5093783;28;20169;-85
2021/06/10 05:21:27;;;;;;;6.80;6.20;;;;;;;;;;5094091;28;20210;-85
2021/06/10 05:23:53;;;;;;;8.10;6.13;;;;;;;;;;5093934;28;20652;-84
2021/06/10 05:26:18;;;;;;;8.70;6.40;;;;;;;;;;5093485;28;20621;-84
2021/06/10 05:28:43;;;;;;;6.20;5.70;;;;;;;;;;5093675;28;20231;-85
2021/06/10 05:31:09;;;;;;;7.43;6.57;;;;;;;;;;5093940;28;20228;-86
2021/06/10 05:33:35;;;;;;;7.80;6.97;;;;;;;;;;5093850;28;20524;-86
2021/06/10 05:36:00;;;;;;;6.70;6.17;;;;;;;;;;5094747;28;20206;-86
2021/06/10 05:38:25;;;;;;;7.23;6.63;;;;;;;;;;5093850;28;20174;-86
2021/06/10 05:40:51;;;;;;;6.30;5.80;;;;;;;;;;5093827;28;20171;-87
2021/06/10 05:43:16;;;;;;;6.60;6.00;;;;;;;;;;5093785;28;20197;-87
2021/06/10 05:45:41;;;;;;;5.72;5.22;;;;;;;;;;5094338;28;20170;-87
2021/06/10 05:48:07;;;;;;;7.05;5.75;;;;;;;;;;5094284;28;20178;-88
2021/06/10 05:50:33;;;;;;;5.63;5.22;;;;;;;;;;5093536;28;20616;-88
2021/06/10 05:52:58;;;;;;;7.88;5.70;;;;;;;;;;5095680;28;20167;-88
2021/06/10 05:55:23;;;;;;;5.95;5.45;;;;;;;;;;5110585;28;20198;-88
2021/06/10 05:57:48;;;;;;;6.00;5.55;;;;;;;;;;5113826;28;20604;-86
2021/06/10 06:00:16;;;;;;;6.93;6.22;;;;;;;;;;5114241;28;20291;-87
2021/06/10 06:02:41;;;;;;;6.60;6.10;;;;;;;;;;5113446;28;20306;-88
2021/06/10 06:05:07;;;;;;;6.57;5.95;;;;;;;;;;5113588;28;20501;-88
2021/06/10 06:07:32;;;;;;;6.05;5.55;;;;;;;;;;5113536;28;20166;-87
2021/06/10 06:10:02;;;;;;;7.72;5.68;;;;;;;;;;5114106;28;20492;-88
2021/06/10 06:12:28;;;;;;;5.22;4.75;;;;;;;;;;5113973;28;20161;-88
2021/06/10 06:14:53;;;;;;;5.78;4.88;;;;;;;;;;5113517;28;20162;-87
2021/06/10 06:17:18;;;;;;;4.88;4.47;;;;;;;;;;5113774;28;20173;-89
2021/06/10 06:19:44;;;;;;;5.38;4.10;;;;;;;;;;5114060;28;20222;-88
2021/06/10 06:22:09;;;;;;;4.22;3.88;;;;;;;;;;5112798;28;20183;-88
2021/06/10 06:24:35;;;;;;;4.53;4.13;;;;;;;;;;5113490;28;20197;-88
2021/06/10 06:27:00;;;;;;;4.65;4.18;;;;;;;;;;5113406;28;20596;-88
2021/06/10 06:29:26;;;;;;;4.88;3.90;;;;;;;;;;5113289;28;20695;-86
2021/06/10 06:31:51;;;;;;;4.20;3.90;;;;;;;;;;5113340;28;20193;-85
2021/06/10 06:34:16;;;;;;;4.07;3.80;;;;;;;;;;5113257;28;20197;-86
2021/06/10 06:36:42;;;;;;;4.53;3.63;;;;;;;;;;5113292;28;20165;-89
2021/06/10 06:39:07;;;;;;;3.90;3.60;;;;;;;;;;5114428;28;20198;-88
2021/06/10 06:41:32;;;;;;;3.85;3.55;;;;;;;;;;5116978;28;20616;-89
2021/06/10 06:43:58;;;;;;;4.18;3.88;;;;;;;;;;5116986;28;20189;-88
2021/06/10 06:46:24;;;;;;;7.78;3.88;;;;;;;;;;5117330;28;20180;-89
2021/06/10 06:48:49;;;;;;;5.68;4.03;;;;;;;;;;5116716;28;20648;-88
2021/06/10 06:51:15;;;;;;;4.00;3.70;;;;;;;;;;5116656;28;20165;-88
2021/06/10 06:53:40;;;;;;;3.92;3.63;;;;;;;;;;5116660;28;20193;-88
2021/06/10 06:56:05;;;;;;;4.35;4.05;;;;;;;;;;5116851;28;20189;-88
2021/06/10 06:58:31;;;;;;;4.35;4.05;;;;;;;;;;5098569;28;20170;-89
2021/06/10 07:00:56;;;;;;;3.88;3.67;;;;;;;;;;5116391;28;20220;-89
2021/06/10 07:03:22;;;;;;;3.92;3.70;;;;;;;;;;5116767;28;20169;-90
2021/06/10 07:05:47;;;;;;;3.90;3.60;;;;;;;;;;5116643;28;20169;-89
2021/06/10 07:08:13;;;;;;;4.53;4.03;;;;;;;;;;5116570;28;20161;-89
2021/06/10 07:10:40;;;;;;;3.78;3.58;;;;;;;;;;5097663;28;20568;-91
2021/06/10 07:13:05;;;;;;;4.03;3.72;;;;;;;;;;5116156;28;20200;-88
2021/06/10 07:15:32;;;;;;;3.80;3.60;;;;;;;;;;5116425;28;20504;-89
2021/06/10 07:17:57;;;;;;;3.92;3.70;;;;;;;;;;5116179;28;20189;-88
2021/06/10 07:20:23;;;;;;;4.28;4.00;;;;;;;;;;5116672;28;20740;-89
2021/06/10 07:22:48;;;;;;;4.03;3.80;;;;;;;;;;5116527;28;20191;-88
2021/06/10 07:25:14;;;;;;;3.80;3.53;;;;;;;;;;5116420;28;20260;-88
2021/06/10 07:27:40;;;;;;;4.05;3.75;;;;;;;;;;5116067;28;20535;-88
2021/06/10 07:30:06;;;;;;;3.75;3.50;;;;;;;;;;5116337;28;20604;-88
2021/06/10 07:32:32;;;;;;;4.20;3.90;;;;;;;;;;5116165;28;20169;-88
2021/06/10 07:34:57;;;;;;;3.90;3.60;;;;;;;;;;5116220;28;20520;-88
2021/06/10 07:37:23;;;;;;;4.30;4.00;;;;;;;;;;5115904;28;20165;-87
2021/06/10 07:39:48;;;;;;;3.90;3.70;;;;;;;;;;5116055;28;20190;-88
2021/06/10 07:42:13;;;;;;;4.25;3.85;;;;;;;;;;5115800;28;20172;-89
2021/06/10 07:44:39;;;;;;;4.30;4.00;;;;;;;;;;5115869;28;20237;-88
2021/06/10 07:47:04;;;;;;;4.07;3.33;;;;;;;;;;5097648;28;20169;-87
2021/06/10 07:49:30;;;;;;;3.58;3.28;;;;;;;;;;5115288;28;20585;-88
2021/06/10 07:51:55;;;;;;;3.35;3.08;;;;;;;;;;5097227;28;20169;-88
2021/06/10 07:54:21;;;;;;;5.03;3.25;;;;;;;;;;5115437;28;20643;-87
2021/06/10 07:56:46;;;;;;;3.10;2.90;;;;;;;;;;5115407;28;20185;-87
2021/06/10 07:59:12;;;;;;;3.20;3.00;;;;;;;;;;5115694;28;20169;-86
2021/06/10 08:01:38;;;;;;;3.33;3.00;;;;;;;;;;5115774;28;20285;-87
2021/06/10 08:04:03;;;;;;;5.18;3.10;;;;;;;;;;5115632;28;20181;-85
2021/06/10 08:06:29;;;;;;;3.08;2.92;;;;;;;;;;5115257;28;20174;-85
2021/06/10 08:08:54;;;;;;;3.20;3.00;;;;;;;;;;5097180;28;20166;-86
2021/06/10 08:11:19;;;;;;;2.95;2.75;;;;;;;;;;5115466;28;20182;-85
2021/06/10 08:13:45;;;;;;;2.97;2.78;;;;;;;;;;5115435;28;20200;-87
2021/06/10 08:16:10;;;;;;;2.60;2.50;;;;;;;;;;5115403;28;20249;-87
2021/06/10 08:18:35;;;;;;;2.75;2.55;;;;;;;;;;5114934;28;20245;-86
2021/06/10 08:21:02;;;;;;;3.65;2.80;;;;;;;;;;5095835;28;20182;-87
2021/06/10 08:23:27;;;;;;;3.22;2.65;;;;;;;;;;5094763;28;20202;-87
2021/06/10 08:25:57;;;;;;;2.90;2.70;;;;;;;;;;5094431;28;20202;-87
2021/06/10 08:28:22;;;;;;;5.03;2.80;;;;;;;;;;5094781;28;20163;-86
2021/06/10 08:30:47;;;;;;;3.88;2.90;;;;;;;;;;5094611;28;20174;-87
2021/06/10 08:33:13;;;;;;;3.03;2.83;;;;;;;;;;5105639;28;20198;-87
2021/06/10 08:35:38;;;;;;;3.08;2.88;;;;;;;;;;5102063;28;20170;-87
2021/06/10 08:38:06;;;;;;;3.55;3.25;;;;;;;;;;5109272;28;20589;-87
2021/06/10 08:40:33;;;;;;;3.20;3.00;;;;;;;;;;5114660;28;20173;-86
2021/06/10 08:42:58;;;;;;;3.33;3.03;;;;;;;;;;5098571;28;20205;-86
2021/06/10 08:45:26;;;;;;;3.10;2.90;;;;;;;;;;5113287;28;20204;-86
2021/06/10 08:47:52;;;;;;;3.30;3.10;;;;;;;;;;5112919;28;20193;-86
2021/06/10 08:50:22;;;;;;;4.38;3.47;;;;;;;;;;5102199;28;20213;-87
2021/06/10 08:52:48;;;;;;;4.13;3.20;;;;;;;;;;5092963;28;20170;-86
2021/06/10 08:55:13;;;;;;;3.42;3.15;;;;;;;;;;5079311;28;20221;-85
2021/06/10 08:57:40;;;;;;;3.60;3.30;;;;;;;;;;5092428;28;20169;-86
2021/06/10 09:00:08;;;;;;;3.35;3.15;;;;;;;;;;5092611;28;20178;-86
2021/06/10 09:02:33;;;;;;;3.40;3.20;;;;;;;;;;5099868;28;20253;-86
2021/06/10 09:05:06;;;;;;;3.83;3.50;;;;;;;;;;5111771;28;20186;-85
2021/06/10 09:07:34;;;;;;;3.38;3.13;;;;;;;;;;5102441;28;20174;-86
2021/06/10 09:10:00;;;;;;;3.83;3.53;;;;;;;;;;5094184;28;20175;-86
2021/06/10 09:12:25;;;;;;;3.72;3.53;;;;;;;;;;5099247;28;20172;-86
2021/06/10 09:14:51;;;;;;;3.67;3.38;;;;;;;;;;5102101;28;20259;-86
2021/06/10 09:17:30;;;;;;;3.63;3.42;;;;;;;;;;5103283;28;20174;-86
2021/06/10 09:19:55;;;;;;;3.72;3.40;;;;;;;;;;5093901;28;20170;-86
2021/06/10 09:22:25;;;;;;;3.30;3.10;;;;;;;;;;5106092;28;20174;-86
2021/06/10 09:24:51;;;;;;;3.70;3.40;;;;;;;;;;5114539;28;20666;-86
2021/06/10 09:27:16;;;;;;;5.13;3.50;;;;;;;;;;5113933;28;20166;-85
2021/06/10 09:29:41;;;;;;;3.90;3.60;;;;;;;;;;5115169;28;20177;-85
2021/06/10 09:32:13;;;;;;;3.72;3.42;;;;;;;;;;5114180;28;20169;-86
2021/06/10 09:34:44;;;;;;;3.88;3.63;;;;;;;;;;5096145;28;20209;-87
2021/06/10 09:37:10;;;;;;;4.10;3.70;;;;;;;;;;5114277;28;20176;-86
2021/06/10 09:39:49;;;;;;;3.80;3.50;;;;;;;;;;5114229;28;20528;-87
2021/06/10 09:42:14;;;;;;;4.10;3.72;;;;;;;;;;5097944;28;20186;-87
2021/06/10 09:44:44;;;;;;;3.85;3.65;;;;;;;;;;5093836;28;20223;-87
2021/06/10 09:47:12;;;;;;;4.22;3.90;;;;;;;;;;5094228;28;20167;-88
2021/06/10 09:49:37;;;;;;;5.03;4.00;;;;;;;;;;5093779;28;20173;-87
2021/06/10 09:52:03;;;;;;;4.07;3.80;;;;;;;;;;5093603;28;20174;-87
2021/06/10 09:54:38;;;;;;;4.50;4.20;;;;;;;;;;5093646;28;20198;-87
2021/06/10 09:57:03;;;;;;;6.93;4.00;;;;;;;;;;5093551;28;20200;-87
2021/06/10 09:59:52;;;;;;;4.10;3.80;;;;;;;;;;5093665;28;20163;-88
2021/06/10 10:02:24;;;;;;;4.47;4.00;;;;;;;;;;5067407;28;20313;-88
2021/06/10 10:04:56;;;;;;;5.28;3.80;;;;;;;;;;5093899;28;20188;-87
2021/06/10 10:07:21;;;;;;;4.22;3.83;;;;;;;;;;5093689;28;20585;-89
2021/06/10 10:09:46;;;;;;;3.85;3.65;;;;;;;;;;5075450;28;20201;-88
2021/06/10 10:12:12;;;;;;;4.15;3.75;;;;;;;;;;5093927;28;20502;-88
2021/06/10 10:14:38;;;;;;;5.22;3.67;;;;;;;;;;5097196;28;20198;-89
2021/06/10 10:17:04;;;;;;;3.80;3.60;;;;;;;;;;5097323;28;20506;-89
2021/06/10 10:19:31;;;;;;;4.10;3.47;;;;;;;;;;5097042;28;20701;-88
2021/06/10 10:21:57;;;;;;;4.50;4.10;;;;;;;;;;5097558;28;20517;-88
2021/06/10 10:24:22;;;;;;;8.75;3.70;;;;;;;;;;5097215;28;20170;-89
2021/06/10 10:26:47;;;;;;;7.00;4.18;;;;;;;;;;5097500;28;20186;-88
2021/06/10 10:29:16;;;;;;;4.15;3.85;;;;;;;;;;5096727;28;20259;-88
2021/06/10 10:31:43;;;;;;;3.60;3.30;;;;;;;;;;5097084;28;20171;-88
2021/06/10 10:34:30;;;;;;;3.60;3.30;;;;;;;;;;5097395;28;20645;-86
2021/06/10 10:36:55;;;;;;;4.18;3.42;;;;;;;;;;5097385;28;20501;-86
2021/06/10 10:39:33;;;;;;;4.22;3.92;;;;;;;;;;5096650;28;20174;-90
2021/06/10 10:41:59;;;;;;;3.72;3.53;;;;;;;;;;5111573;28;20173;-90
2021/06/10 10:44:29;;;;;;;4.72;3.88;;;;;;;;;;5117317;28;20592;-91
2021/06/10 10:47:03;;;;;;;3.58;3.38;;;;;;;;;;5099232;28;20173;-90
2021/06/10 10:49:30;;;;;;;3.60;3.30;;;;;;;;;;5117156;28;20173;-89
2021/06/10 10:52:36;;;;;;;3.72;3.47;;;;;;;;;;5117251;28;20166;-87
2021/06/10 10:55:16;;;;;;;3.47;3.28;;;;;;;;;;5034309;28;20185;-87
2021/06/10 10:57:42;;;;;;;3.40;3.10;;;;;;;;;;5121983;27;20216;-88
2021/06/10 11:00:08;;;;;;;3.22;3.03;;;;;;;;;;5137915;27;20165;-88
2021/06/10 11:02:36;;;;;;;3.28;3.08;;;;;;;;;;5103470;28;20256;-87
2021/06/10 11:05:07;;;;;;;3.25;3.05;;;;;;;;;;5101276;28;20174;-87
2021/06/10 11:07:33;;;;;;;3.50;3.20;;;;;;;;;;5103130;28;20241;-88
2021/06/10 11:09:58;;;;;;;2.83;2.70;;;;;;;;;;5095992;28;20171;-89
2021/06/10 11:12:47;;;;;;;2.80;2.70;;;;;;;;;;5092604;28;20536;-88
2021/06/10 11:15:12;;;;;;;3.20;3.00;;;;;;;;;;5074695;28;20215;-88
2021/06/10 11:17:44;;;;;;;2.50;2.40;;;;;;;;;;5075961;28;20198;-88
2021/06/10 11:20:16;;;;;;;3.10;2.90;;;;;;;;;;5076537;28;20171;-88
2021/06/10 11:22:43;;;;;;;2.90;2.70;;;;;;;;;;5075373;28;20561;-88
2021/06/10 11:25:10;;;;;;;2.70;2.50;;;;;;;;;;5060245;28;20179;-89
2021/06/10 11:27:40;;;;;;;3.20;3.00;;;;;;;;;;5056008;28;20171;-87
2021/06/10 11:30:21;;;;;;;3.60;3.10;;;;;;;;;;5055888;28;20168;-88
2021/06/10 11:33:12;;;;;;;4.68;3.10;;;;;;;;;;5054425;28;20622;-88
2021/06/10 11:35:41;;;;;;;3.72;2.88;;;;;;;;;;5031061;28;20690;-89
2021/06/10 11:38:10;;;;;;;2.63;2.42;;;;;;;;;;5061597;28;20172;-87
2021/06/10 11:40:36;;;;;;;2.67;2.47;;;;;;;;;;5066644;28;20171;-88
2021/06/10 11:43:08;;;;;;;2.90;2.70;;;;;;;;;;5064429;28;20172;-88
2021/06/10 11:45:35;;;;;;;2.80;2.70;;;;;;;;;;5063789;28;20171;-88
2021/06/10 11:48:00;;;;;;;3.95;2.88;;;;;;;;;;5064015;28;20182;-88
2021/06/10 11:50:30;;;;;;;2.90;2.70;;;;;;;;;;5063562;28;20172;-88
2021/06/10 11:52:58;;;;;;;3.05;2.50;;;;;;;;;;5062005;28;20175;-88
2021/06/10 11:55:26;;;;;;;2.75;2.50;;;;;;;;;;5063060;28;20202;-89
2021/06/10 11:57:52;;;;;;;2.90;2.70;;;;;;;;;;5063648;28;20194;-88
2021/06/10 12:00:24;;;;;;;2.80;2.60;;;;;;;;;;5062370;28;20171;-88
2021/06/10 12:02:53;;;;;;;3.00;2.80;;;;;;;;;;5067546;28;20262;-89
2021/06/10 12:05:20;;;;;;;2.72;2.60;;;;;;;;;;5072822;28;20182;-87
2021/06/10 12:07:45;;;;;;;3.05;2.80;;;;;;;;;;5074067;28;20167;-87
2021/06/10 12:10:14;;;;;;;2.40;2.30;;;;;;;;;;5074186;28;20167;-88
2021/06/10 12:12:42;;;;;;;2.70;2.60;;;;;;;;;;5074297;28;20618;-88
2021/06/10 12:15:09;;;;;;;2.92;2.60;;;;;;;;;;5074864;28;20269;-87
2021/06/10 12:17:53;;;;;;;2.75;2.40;;;;;;;;;;5074695;28;20203;-87
2021/06/10 12:20:19;;;;;;;2.50;2.40;;;;;;;;;;5074106;28;20254;-87
2021/06/10 12:22:45;;;;;;;2.50;2.40;;;;;;;;;;5074750;28;20195;-88
2021/06/10 12:25:17;;;;;;;2.65;2.55;;;;;;;;;;5074583;28;20594;-88
2021/06/10 12:27:43;;;;;;;2.55;2.35;;;;;;;;;;5074738;28;20260;-89
2021/06/10 12:30:25;;;;;;;4.15;2.78;;;;;;;;;;5073181;28;20690;-88
2021/06/10 12:32:50;;;;;;;3.00;2.80;;;;;;;;;;5074426;28;20329;-88
2021/06/10 12:35:20;;;;;;;3.05;2.70;;;;;;;;;;5073896;28;20168;-88
2021/06/10 12:37:49;;;;;;;3.00;2.67;;;;;;;;;;5074462;28;20168;-88
2021/06/10 12:40:14;;;;;;;3.05;2.83;;;;;;;;;;5073124;28;20187;-88
2021/06/10 12:42:40;;;;;;;3.38;3.10;;;;;;;;;;5074313;28;20182;-87
2021/06/10 12:45:24;;;;;;;3.78;2.60;;;;;;;;;;5074459;28;20626;-88
2021/06/10 12:47:49;;;;;;;5.18;3.30;;;;;;;;;;5074624;28;20498;-88
2021/06/10 12:50:22;;;;;;;2.75;2.50;;;;;;;;;;5073922;28;20171;-85
2021/06/10 12:53:22;;;;;;;3.25;2.42;;;;;;;;;;5074353;28;20558;-96
2021/06/10 12:55:48;;;;;;;2.83;2.40;;;;;;;;;;5077626;28;20257;-92
2021/06/10 12:58:14;;;;;;;3.63;2.97;;;;;;;;;;5073746;28;20171;-93
2021/06/10 13:00:42;;;;;;;2.63;2.53;;;;;;;;;;5074996;28;20258;-95
2021/06/10 13:03:08;;;;;;;2.63;2.50;;;;;;;;;;5081460;28;20292;-96
2021/06/10 13:05:34;;;;;;;2.90;2.70;;;;;;;;;;5117897;28;20182;-94
2021/06/10 13:08:00;;;;;;;3.25;2.47;;;;;;;;;;5114445;28;20252;-96
2021/06/10 13:10:31;;;;;;;3.15;2.60;;;;;;;;;;5114935;28;20173;-94
2021/06/10 13:12:58;;;;;;;2.00;1.90;;;;;;;;;;5115023;28;20628;-95
2021/06/10 13:15:28;;;;;;;2.55;2.45;;;;;;;;;;5115522;28;20619;-96
2021/06/10 13:18:15;;;;;;;2.30;2.20;;;;;;;;;;5127164;28;20209;-94
2021/06/10 13:21:11;;;;;;;2.42;2.30;;;;;;;;;;5123236;28;20189;-96
2021/06/10 13:23:47;;;;;;;3.78;2.33;;;;;;;;;;5122143;28;20209;-96
2021/06/10 13:27:01;;;;;;;2.20;2.10;;;;;;;;;;5113531;28;20162;-96
2021/06/10 13:38:14;;;;;;;3.40;3.10;;;;;;;;;;5066043;28;20234;-96
2021/06/10 13:41:03;;;;;;;4.75;3.28;;;;;;;;;;5061708;28;20638;-96
2021/06/10 13:43:55;;;;;;;4.53;3.15;;;;;;;;;;5064760;28;20206;-96
2021/06/10 13:46:52;;;;;;;4.30;2.97;;;;;;;;;;5059030;28;20225;-96
2021/06/10 13:49:21;;;;;;;3.22;3.03;;;;;;;;;;5061185;28;20278;-96
2021/06/10 13:51:46;;;;;;;3.45;3.20;;;;;;;;;;5061081;28;20266;-94
2021/06/10 13:56:48;;;;;;;4.10;3.80;;;;;;;;;;5128292;22;20243;-96
2021/06/10 13:59:37;;;;;;;3.92;3.72;;;;;;;;;;5068167;28;20187;-96
2021/06/10 14:02:15;;;;;;;4.22;3.92;;;;;;;;;;5060931;28;20245;-96
2021/06/10 14:04:45;;;;;;;4.13;3.78;;;;;;;;;;5098917;22;20183;-96
2021/06/10 14:07:11;;;;;;;4.28;4.00;;;;;;;;;;5049773;28;20247;-96
2021/06/10 14:09:50;;;;;;;6.15;3.95;;;;;;;;;;5122074;22;20205;-96
2021/06/10 14:12:16;;;;;;;4.65;4.13;;;;;;;;;;5041638;28;20203;-96
2021/06/10 14:14:41;;;;;;;5.38;4.60;;;;;;;;;;5057550;28;20724;-96
2021/06/10 14:17:29;;;;;;;4.80;4.50;;;;;;;;;;5061097;28;20180;-96
2021/06/10 14:19:59;;;;;;;5.00;4.60;;;;;;;;;;5064907;28;20183;-96
2021/06/10 14:22:40;;;;;;;5.20;4.70;;;;;;;;;;5066821;28;20206;-96
2021/06/10 14:25:27;;;;;;;4.80;4.50;;;;;;;;;;5068569;28;20622;-96
2021/06/10 14:28:26;;;;;;;4.60;4.28;;;;;;;;;;5069401;28;20180;-96
2021/06/10 14:33:49;;;;;;;4.38;4.07;;;;;;;;;;4997195;28;20263;-94
2021/06/10 14:39:40;;;;;;;5.03;4.72;;;;;;;;;;5206427;22;20961;-96
2021/06/10 14:42:20;;;;;;;6.03;4.35;;;;;;;;;;5129596;28;20178;-96
2021/06/10 14:45:01;;;;;;;4.70;4.30;;;;;;;;;;5120008;28;20177;-96
2021/06/10 14:47:28;;;;;;;4.03;3.72;;;;;;;;;;5125481;28;20197;-96
2021/06/10 14:49:55;;;;;;;4.00;3.70;;;;;;;;;;5100613;28;20184;-95
2021/06/10 14:52:21;;;;;;;4.35;4.05;;;;;;;;;;5120114;28;20174;-93
2021/06/10 14:54:55;;;;;;;4.18;3.90;;;;;;;;;;5121737;28;20630;-96
2021/06/10 14:57:23;;;;;;;5.18;4.60;;;;;;;;;;5079831;28;20604;-95
2021/06/10 14:59:49;;;;;;;4.53;4.13;;;;;;;;;;5057856;28;20182;-94
2021/06/10 15:02:33;;;;;;;5.28;3.90;;;;;;;;;;5076772;28;20185;-96
2021/06/10 15:05:00;;;;;;;4.30;4.00;;;;;;;;;;5184508;22;20246;-94
2021/06/10 15:07:26;;;;;;;4.20;3.80;;;;;;;;;;5059792;28;20182;-96